Language selection

Weather shortcuts

West Coast Vancouver Island North: Past 24 Hour Conditions

 

Sentry Shoal - 46131

10:00 PM PDT 25 May 2024Buoy position: 49.92N 125.0W
Disclaimer

This table is a summary of hourly weather conditions for the past 24 hours.
Please note that these observations might not always be representative of weather conditions over their associated marine area.

Date / Time
(PDT)
Wind(knots) Wave height(m) Wave period(s) Pressure(kPa) Air tempC) Water tempC)
25 May 2024
22:00 E 6 gusts 8 0.24 2.9 101.5 12 12
21:00 SSW 6 gusts 7 0.30 2.6 101.4 12 12
20:00 SW 11 gusts 13 0.21 2.3 101.4 12 12
19:00 ESE 10 gusts 12 0.18 2.0 101.4 13 12
18:00 ESE 11 gusts 12 0.12 1.9 101.4 13 12
17:00 ESE 11 gusts 12 0.12 2.1 101.4 13 13
16:00 ESE 10 gusts 11 0.11 3.0 101.3 13 12
15:00 ENE 6 gusts 7 0.14 3.0 101.3 13 13
14:00 NNE 4 gusts 5 0.22 3.1 101.3 13 12
13:00 NW 12 gusts 14 0.27 2.5 101.2 13 12
12:00 N 11 gusts 13 0.24 2.8 101.2 12 12
11:00 NW 10 gusts 13 0.23 2.7 101.1 11 11
10:00 W 13 gusts 15 0.35 2.9 101.1 11 11
9:00 NW 15 gusts 18 0.29 3.0 101.1 10 11
8:00 W 12 gusts 15 0.37 3.1 101.0 10 11
7:00 WSW 15 gusts 17 0.47 3.3 101.0 10 11
6:00 W 16 gusts 19 0.42 3.2 101.0 10 11
5:00 WNW 13 gusts 16 0.36 3.1 101.0 9 11
4:00 W 14 gusts 16 0.36 3.1 100.9 9 11
3:00 NNW 11 gusts 13 0.30 2.9 101.0 9 11
2:00 NNW 10 gusts 12 0.25 3.1 101.0 10 11
1:00 NW 13 gusts 17 0.32 3.2 101.0 10 11
0:00 WNW 11 gusts 14 0.30 3.3 101.0 10 11
24 May 2024
23:00 WNW 16 gusts 19 0.38 3.4 101.0 10 11
22:00 WNW 18 gusts 22 0.40 2.9 101.0 11 11

Zoom-in to make a selection

Map of Pacific - South Coast marine weather areas South Nomad - 46036 Sentry Shoal - 46131 South Brooks - 46132 Halibut Bank - 46146 South Moresby - 46147 South Hecate Strait - 46185 West Sea Otter - 46204 La Perouse Bank - 46206 East Dellwood - 46207 Georgia Strait - 46303 English Bay – 46304 Discovery Island Esquimalt Harbour Kelp Reefs Malahat Race Rocks Lightstation Saturna Island Sheringham Point University of Victoria Victoria Gonzales Victoria Int'l Airport Ballenas Islands Campbell River Airport Comox Airport Entrance Island Fanny Island Nanaimo Airport Port Hardy Airport Sisters Islets Estevan Point Port Alberni Sartine Island Solander Island Tofino Airport Grief Point Howe Sound - Pam Rocks Powell River Airport Sechelt Squamish Airport Cape St.James Bella Bella Airport Bella Coola Airport Cathedral Point Herbert Island Point Atkinson Sand Heads Lightstation Tsawwassen Ferry Terminal Vancouver Int'l Airport Vancouver Harbour West Vancouver
Legend:
buoy Buoy
land station Land Station

Pacific - South Coast Area

Another Region

Features

New Predicting and Alerting Coastal Flooding Program

Find out about coastal flooding coverage, forecasts and warnings in your region

Date modified: